sensor_id;sensor_type;location;lat;lon;timestamp;P1;durP1;ratioP1;P2;durP2;ratioP2
11675;SDS011;5894;42.768;23.404;2023-07-20T00:01:46;5.07;;;1.90;;
11675;SDS011;5894;42.768;23.404;2023-07-20T00:04:13;3.67;;;2.13;;
11675;SDS011;5894;42.768;23.404;2023-07-20T00:06:40;7.47;;;2.20;;
11675;SDS011;5894;42.768;23.404;2023-07-20T00:09:07;4.75;;;2.30;;
11675;SDS011;5894;42.768;23.404;2023-07-20T00:11:35;3.85;;;1.90;;
11675;SDS011;5894;42.768;23.404;2023-07-20T00:14:04;5.93;;;2.00;;
11675;SDS011;5894;42.768;23.404;2023-07-20T00:16:31;4.50;;;2.38;;
11675;SDS011;5894;42.768;23.404;2023-07-20T00:19:00;6.57;;;2.25;;
11675;SDS011;5894;42.768;23.404;2023-07-20T00:21:27;9.95;;;2.38;;
11675;SDS011;5894;42.768;23.404;2023-07-20T00:23:53;7.65;;;2.10;;
11675;SDS011;5894;42.768;23.404;2023-07-20T00:26:20;7.28;;;2.30;;
11675;SDS011;5894;42.768;23.404;2023-07-20T00:28:49;8.02;;;2.70;;
11675;SDS011;5894;42.768;23.404;2023-07-20T00:31:18;4.97;;;2.20;;
11675;SDS011;5894;42.768;23.404;2023-07-20T00:33:45;6.25;;;2.15;;
11675;SDS011;5894;42.768;23.404;2023-07-20T00:36:14;5.72;;;2.55;;
11675;SDS011;5894;42.768;23.404;2023-07-20T00:38:42;5.00;;;2.30;;
11675;SDS011;5894;42.768;23.404;2023-07-20T00:41:09;2.67;;;2.08;;
11675;SDS011;5894;42.768;23.404;2023-07-20T00:43:36;9.23;;;2.55;;
11675;SDS011;5894;42.768;23.404;2023-07-20T00:46:03;4.75;;;2.30;;
11675;SDS011;5894;42.768;23.404;2023-07-20T00:48:30;6.18;;;2.50;;
11675;SDS011;5894;42.768;23.404;2023-07-20T00:50:58;4.18;;;2.33;;
11675;SDS011;5894;42.768;23.404;2023-07-20T00:53:28;8.43;;;2.80;;
11675;SDS011;5894;42.768;23.404;2023-07-20T00:55:55;4.63;;;2.17;;
11675;SDS011;5894;42.768;23.404;2023-07-20T00:58:22;7.22;;;2.63;;
11675;SDS011;5894;42.768;23.404;2023-07-20T01:00:50;2.78;;;2.10;;
11675;SDS011;5894;42.768;23.404;2023-07-20T01:03:18;5.90;;;2.40;;
11675;SDS011;5894;42.768;23.404;2023-07-20T01:05:47;6.07;;;2.40;;
11675;SDS011;5894;42.768;23.404;2023-07-20T01:08:24;4.60;;;2.20;;
11675;SDS011;5894;42.768;23.404;2023-07-20T01:11:01;4.18;;;2.25;;
11675;SDS011;5894;42.768;23.404;2023-07-20T01:13:36;6.57;;;3.35;;
11675;SDS011;5894;42.768;23.404;2023-07-20T01:16:04;3.63;;;2.47;;
11675;SDS011;5894;42.768;23.404;2023-07-20T01:18:31;4.22;;;2.40;;
11675;SDS011;5894;42.768;23.404;2023-07-20T01:20:59;7.50;;;2.60;;
11675;SDS011;5894;42.768;23.404;2023-07-20T01:26:32;5.68;;;2.60;;
11675;SDS011;5894;42.768;23.404;2023-07-20T01:29:14;4.00;;;2.30;;
11675;SDS011;5894;42.768;23.404;2023-07-20T01:31:51;3.53;;;2.40;;
11675;SDS011;5894;42.768;23.404;2023-07-20T01:34:19;3.92;;;2.25;;
11675;SDS011;5894;42.768;23.404;2023-07-20T01:36:50;7.50;;;2.47;;
11675;SDS011;5894;42.768;23.404;2023-07-20T01:39:19;5.13;;;2.35;;
11675;SDS011;5894;42.768;23.404;2023-07-20T01:41:47;5.28;;;2.60;;
11675;SDS011;5894;42.768;23.404;2023-07-20T01:44:14;4.88;;;2.65;;
11675;SDS011;5894;42.768;23.404;2023-07-20T01:46:41;5.88;;;2.53;;
11675;SDS011;5894;42.768;23.404;2023-07-20T01:49:09;5.30;;;2.10;;
11675;SDS011;5894;42.768;23.404;2023-07-20T01:51:37;6.57;;;2.50;;
11675;SDS011;5894;42.768;23.404;2023-07-20T01:54:04;3.72;;;2.30;;
11675;SDS011;5894;42.768;23.404;2023-07-20T01:56:31;6.38;;;2.38;;
11675;SDS011;5894;42.768;23.404;2023-07-20T01:58:58;5.05;;;2.60;;
11675;SDS011;5894;42.768;23.404;2023-07-20T02:01:24;4.15;;;2.20;;
11675;SDS011;5894;42.768;23.404;2023-07-20T02:03:53;8.73;;;2.95;;
11675;SDS011;5894;42.768;23.404;2023-07-20T02:06:22;5.32;;;2.42;;
11675;SDS011;5894;42.768;23.404;2023-07-20T02:08:49;6.43;;;2.47;;
11675;SDS011;5894;42.768;23.404;2023-07-20T02:11:16;7.18;;;2.72;;
11675;SDS011;5894;42.768;23.404;2023-07-20T02:13:43;3.95;;;2.70;;
11675;SDS011;5894;42.768;23.404;2023-07-20T02:16:10;6.60;;;2.50;;
11675;SDS011;5894;42.768;23.404;2023-07-20T02:18:37;4.72;;;2.28;;
11675;SDS011;5894;42.768;23.404;2023-07-20T02:21:06;6.57;;;2.70;;
11675;SDS011;5894;42.768;23.404;2023-07-20T02:23:35;4.63;;;2.70;;
11675;SDS011;5894;42.768;23.404;2023-07-20T02:26:02;5.50;;;2.50;;
11675;SDS011;5894;42.768;23.404;2023-07-20T02:28:29;8.18;;;3.20;;
11675;SDS011;5894;42.768;23.404;2023-07-20T02:30:56;5.05;;;3.00;;
11675;SDS011;5894;42.768;23.404;2023-07-20T02:33:23;5.50;;;2.67;;
11675;SDS011;5894;42.768;23.404;2023-07-20T02:35:50;7.38;;;2.47;;
11675;SDS011;5894;42.768;23.404;2023-07-20T02:38:17;4.60;;;2.40;;
11675;SDS011;5894;42.768;23.404;2023-07-20T02:40:45;4.85;;;2.75;;
11675;SDS011;5894;42.768;23.404;2023-07-20T02:43:12;6.05;;;3.05;;
11675;SDS011;5894;42.768;23.404;2023-07-20T02:45:40;5.63;;;2.95;;
11675;SDS011;5894;42.768;23.404;2023-07-20T02:48:08;6.97;;;2.83;;
11675;SDS011;5894;42.768;23.404;2023-07-20T02:50:35;5.47;;;3.00;;
11675;SDS011;5894;42.768;23.404;2023-07-20T02:53:02;4.57;;;2.70;;
11675;SDS011;5894;42.768;23.404;2023-07-20T02:55:29;8.05;;;2.97;;
11675;SDS011;5894;42.768;23.404;2023-07-20T02:57:58;7.07;;;2.50;;
11675;SDS011;5894;42.768;23.404;2023-07-20T03:00:25;6.43;;;3.17;;
11675;SDS011;5894;42.768;23.404;2023-07-20T03:02:53;8.02;;;3.30;;
11675;SDS011;5894;42.768;23.404;2023-07-20T03:05:21;5.93;;;3.10;;
11675;SDS011;5894;42.768;23.404;2023-07-20T03:07:50;9.63;;;3.38;;
11675;SDS011;5894;42.768;23.404;2023-07-20T03:10:17;6.60;;;3.45;;
11675;SDS011;5894;42.768;23.404;2023-07-20T03:12:44;6.30;;;2.95;;
11675;SDS011;5894;42.768;23.404;2023-07-20T03:15:13;6.28;;;3.00;;
11675;SDS011;5894;42.768;23.404;2023-07-20T03:17:40;5.20;;;3.05;;
11675;SDS011;5894;42.768;23.404;2023-07-20T03:20:08;7.40;;;2.88;;
11675;SDS011;5894;42.768;23.404;2023-07-20T03:22:35;6.30;;;3.17;;
11675;SDS011;5894;42.768;23.404;2023-07-20T03:25:03;7.97;;;3.03;;
11675;SDS011;5894;42.768;23.404;2023-07-20T03:27:31;6.70;;;2.60;;
11675;SDS011;5894;42.768;23.404;2023-07-20T03:29:59;5.15;;;2.75;;
11675;SDS011;5894;42.768;23.404;2023-07-20T03:32:29;7.40;;;3.10;;
11675;SDS011;5894;42.768;23.404;2023-07-20T03:34:56;5.93;;;3.15;;
11675;SDS011;5894;42.768;23.404;2023-07-20T03:37:23;6.72;;;3.30;;
11675;SDS011;5894;42.768;23.404;2023-07-20T03:39:50;7.40;;;3.13;;
11675;SDS011;5894;42.768;23.404;2023-07-20T03:42:17;5.80;;;2.72;;
11675;SDS011;5894;42.768;23.404;2023-07-20T03:44:44;6.68;;;3.00;;
11675;SDS011;5894;42.768;23.404;2023-07-20T03:47:10;5.47;;;2.88;;
11675;SDS011;5894;42.768;23.404;2023-07-20T03:49:39;5.80;;;2.90;;
11675;SDS011;5894;42.768;23.404;2023-07-20T03:52:07;5.45;;;3.20;;
11675;SDS011;5894;42.768;23.404;2023-07-20T03:54:34;10.65;;;3.30;;
11675;SDS011;5894;42.768;23.404;2023-07-20T03:57:01;5.78;;;3.40;;
11675;SDS011;5894;42.768;23.404;2023-07-20T03:59:28;5.60;;;3.60;;
11675;SDS011;5894;42.768;23.404;2023-07-20T04:01:55;8.38;;;3.25;;
11675;SDS011;5894;42.768;23.404;2023-07-20T04:04:22;7.97;;;3.47;;
11675;SDS011;5894;42.768;23.404;2023-07-20T04:06:51;7.15;;;3.50;;
11675;SDS011;5894;42.768;23.404;2023-07-20T04:09:19;8.85;;;3.42;;
11675;SDS011;5894;42.768;23.404;2023-07-20T04:11:46;7.28;;;3.22;;
11675;SDS011;5894;42.768;23.404;2023-07-20T04:14:13;8.63;;;3.38;;
11675;SDS011;5894;42.768;23.404;2023-07-20T04:16:40;6.10;;;3.50;;
11675;SDS011;5894;42.768;23.404;2023-07-20T04:19:07;7.55;;;3.92;;
11675;SDS011;5894;42.768;23.404;2023-07-20T04:21:39;6.03;;;3.30;;
11675;SDS011;5894;42.768;23.404;2023-07-20T04:24:08;7.53;;;3.60;;
11675;SDS011;5894;42.768;23.404;2023-07-20T04:26:36;8.57;;;3.80;;
11675;SDS011;5894;42.768;23.404;2023-07-20T04:29:03;6.05;;;3.72;;
11675;SDS011;5894;42.768;23.404;2023-07-20T04:31:42;7.93;;;4.15;;
11675;SDS011;5894;42.768;23.404;2023-07-20T04:34:10;5.40;;;3.85;;
11675;SDS011;5894;42.768;23.404;2023-07-20T04:36:38;7.05;;;4.03;;
11675;SDS011;5894;42.768;23.404;2023-07-20T04:39:05;14.40;;;4.22;;
11675;SDS011;5894;42.768;23.404;2023-07-20T04:41:38;9.65;;;3.80;;
11675;SDS011;5894;42.768;23.404;2023-07-20T04:44:05;7.28;;;3.78;;
11675;SDS011;5894;42.768;23.404;2023-07-20T04:46:32;6.28;;;3.72;;
11675;SDS011;5894;42.768;23.404;2023-07-20T04:49:01;7.10;;;4.15;;
11675;SDS011;5894;42.768;23.404;2023-07-20T04:51:30;10.90;;;4.07;;
11675;SDS011;5894;42.768;23.404;2023-07-20T04:53:58;6.35;;;3.60;;
11675;SDS011;5894;42.768;23.404;2023-07-20T04:56:28;7.38;;;4.03;;
11675;SDS011;5894;42.768;23.404;2023-07-20T04:58:58;7.70;;;4.40;;
11675;SDS011;5894;42.768;23.404;2023-07-20T05:01:25;6.45;;;4.03;;
11675;SDS011;5894;42.768;23.404;2023-07-20T05:03:53;6.13;;;3.80;;
11675;SDS011;5894;42.768;23.404;2023-07-20T05:06:20;6.70;;;3.88;;
11675;SDS011;5894;42.768;23.404;2023-07-20T05:08:47;7.07;;;4.15;;
11675;SDS011;5894;42.768;23.404;2023-07-20T05:11:14;8.10;;;4.07;;
11675;SDS011;5894;42.768;23.404;2023-07-20T05:13:41;7.45;;;3.85;;
11675;SDS011;5894;42.768;23.404;2023-07-20T05:16:10;6.03;;;4.47;;
11675;SDS011;5894;42.768;23.404;2023-07-20T05:18:37;8.70;;;4.38;;
11675;SDS011;5894;42.768;23.404;2023-07-20T05:21:05;8.35;;;4.40;;
11675;SDS011;5894;42.768;23.404;2023-07-20T05:23:32;9.57;;;4.20;;
11675;SDS011;5894;42.768;23.404;2023-07-20T05:26:00;8.00;;;4.60;;
11675;SDS011;5894;42.768;23.404;2023-07-20T05:28:27;10.32;;;4.88;;
11675;SDS011;5894;42.768;23.404;2023-07-20T05:30:55;9.75;;;4.85;;
11675;SDS011;5894;42.768;23.404;2023-07-20T05:33:26;9.23;;;4.28;;
11675;SDS011;5894;42.768;23.404;2023-07-20T05:35:53;10.40;;;4.75;;
11675;SDS011;5894;42.768;23.404;2023-07-20T05:38:20;10.73;;;4.57;;
11675;SDS011;5894;42.768;23.404;2023-07-20T05:40:48;7.30;;;4.20;;
11675;SDS011;5894;42.768;23.404;2023-07-20T05:43:15;10.95;;;5.28;;
11675;SDS011;5894;42.768;23.404;2023-07-20T05:45:42;8.18;;;4.15;;
11675;SDS011;5894;42.768;23.404;2023-07-20T05:48:10;15.85;;;4.38;;
11675;SDS011;5894;42.768;23.404;2023-07-20T05:50:41;6.43;;;4.03;;
11675;SDS011;5894;42.768;23.404;2023-07-20T05:53:08;8.45;;;4.05;;
11675;SDS011;5894;42.768;23.404;2023-07-20T05:55:35;9.95;;;4.55;;
11675;SDS011;5894;42.768;23.404;2023-07-20T05:58:03;7.20;;;3.60;;
11675;SDS011;5894;42.768;23.404;2023-07-20T06:00:30;7.60;;;4.05;;
11675;SDS011;5894;42.768;23.404;2023-07-20T06:02:57;6.78;;;3.60;;
11675;SDS011;5894;42.768;23.404;2023-07-20T06:05:24;7.47;;;3.85;;
11675;SDS011;5894;42.768;23.404;2023-07-20T06:07:52;10.15;;;4.88;;
11675;SDS011;5894;42.768;23.404;2023-07-20T06:10:19;8.82;;;4.25;;
11675;SDS011;5894;42.768;23.404;2023-07-20T06:12:46;10.07;;;4.20;;
11675;SDS011;5894;42.768;23.404;2023-07-20T06:15:26;7.95;;;3.58;;
11675;SDS011;5894;42.768;23.404;2023-07-20T06:17:54;8.13;;;3.47;;
11675;SDS011;5894;42.768;23.404;2023-07-20T06:20:23;6.22;;;3.60;;
11675;SDS011;5894;42.768;23.404;2023-07-20T06:22:50;7.57;;;3.63;;
11675;SDS011;5894;42.768;23.404;2023-07-20T06:25:18;8.48;;;3.70;;
11675;SDS011;5894;42.768;23.404;2023-07-20T06:27:46;11.55;;;4.05;;
11675;SDS011;5894;42.768;23.404;2023-07-20T06:30:13;5.35;;;3.28;;
11675;SDS011;5894;42.768;23.404;2023-07-20T06:32:40;7.53;;;3.58;;
11675;SDS011;5894;42.768;23.404;2023-07-20T06:35:07;7.30;;;3.28;;
11675;SDS011;5894;42.768;23.404;2023-07-20T06:37:34;7.32;;;3.72;;
11675;SDS011;5894;42.768;23.404;2023-07-20T06:40:02;6.85;;;3.58;;
11675;SDS011;5894;42.768;23.404;2023-07-20T06:42:31;8.55;;;3.83;;
11675;SDS011;5894;42.768;23.404;2023-07-20T06:44:58;8.85;;;4.55;;
11675;SDS011;5894;42.768;23.404;2023-07-20T06:47:25;10.73;;;4.13;;
11675;SDS011;5894;42.768;23.404;2023-07-20T06:49:52;7.70;;;3.85;;
11675;SDS011;5894;42.768;23.404;2023-07-20T06:52:19;8.52;;;3.60;;
11675;SDS011;5894;42.768;23.404;2023-07-20T06:54:46;9.82;;;3.60;;
11675;SDS011;5894;42.768;23.404;2023-07-20T06:57:13;10.80;;;4.22;;
11675;SDS011;5894;42.768;23.404;2023-07-20T06:59:41;6.88;;;3.92;;
11675;SDS011;5894;42.768;23.404;2023-07-20T07:02:08;7.13;;;3.80;;
11675;SDS011;5894;42.768;23.404;2023-07-20T07:04:35;10.88;;;4.00;;
11675;SDS011;5894;42.768;23.404;2023-07-20T07:07:02;8.40;;;3.15;;
11675;SDS011;5894;42.768;23.404;2023-07-20T07:09:29;10.05;;;3.60;;
11675;SDS011;5894;42.768;23.404;2023-07-20T07:11:56;12.88;;;3.72;;
11675;SDS011;5894;42.768;23.404;2023-07-20T07:14:24;10.10;;;3.40;;
11675;SDS011;5894;42.768;23.404;2023-07-20T07:16:52;7.75;;;3.05;;
11675;SDS011;5894;42.768;23.404;2023-07-20T07:19:19;8.65;;;3.60;;
11675;SDS011;5894;42.768;23.404;2023-07-20T07:21:46;10.43;;;3.58;;
11675;SDS011;5894;42.768;23.404;2023-07-20T07:24:13;9.25;;;3.22;;
11675;SDS011;5894;42.768;23.404;2023-07-20T07:26:40;6.03;;;3.05;;
11675;SDS011;5894;42.768;23.404;2023-07-20T07:29:07;6.20;;;2.97;;
11675;SDS011;5894;42.768;23.404;2023-07-20T07:31:34;7.38;;;3.35;;
11675;SDS011;5894;42.768;23.404;2023-07-20T07:34:03;7.93;;;3.58;;
11675;SDS011;5894;42.768;23.404;2023-07-20T07:36:31;7.75;;;3.40;;
11675;SDS011;5894;42.768;23.404;2023-07-20T07:38:58;8.45;;;3.58;;
11675;SDS011;5894;42.768;23.404;2023-07-20T07:41:25;9.13;;;3.60;;
11675;SDS011;5894;42.768;23.404;2023-07-20T07:43:51;8.57;;;3.42;;
11675;SDS011;5894;42.768;23.404;2023-07-20T07:46:18;5.18;;;3.00;;
11675;SDS011;5894;42.768;23.404;2023-07-20T07:48:45;7.78;;;3.35;;
11675;SDS011;5894;42.768;23.404;2023-07-20T07:51:13;5.88;;;2.85;;
11675;SDS011;5894;42.768;23.404;2023-07-20T07:53:40;7.05;;;3.47;;
11675;SDS011;5894;42.768;23.404;2023-07-20T07:56:10;6.97;;;3.30;;
11675;SDS011;5894;42.768;23.404;2023-07-20T07:58:37;6.13;;;2.60;;
11675;SDS011;5894;42.768;23.404;2023-07-20T08:01:04;6.57;;;3.28;;
11675;SDS011;5894;42.768;23.404;2023-07-20T08:03:31;6.95;;;3.28;;
11675;SDS011;5894;42.768;23.404;2023-07-20T08:05:58;7.07;;;2.80;;
11675;SDS011;5894;42.768;23.404;2023-07-20T08:08:26;6.50;;;3.10;;
11675;SDS011;5894;42.768;23.404;2023-07-20T08:10:53;4.60;;;2.90;;
11675;SDS011;5894;42.768;23.404;2023-07-20T08:13:23;6.25;;;2.75;;
11675;SDS011;5894;42.768;23.404;2023-07-20T08:15:50;9.23;;;2.88;;
11675;SDS011;5894;42.768;23.404;2023-07-20T08:18:18;7.63;;;3.53;;
11675;SDS011;5894;42.768;23.404;2023-07-20T08:20:45;9.07;;;3.22;;
11675;SDS011;5894;42.768;23.404;2023-07-20T08:23:12;10.57;;;5.25;;
11675;SDS011;5894;42.768;23.404;2023-07-20T08:25:40;17.92;;;3.72;;
11675;SDS011;5894;42.768;23.404;2023-07-20T08:28:09;9.07;;;3.30;;
11675;SDS011;5894;42.768;23.404;2023-07-20T08:30:40;8.73;;;3.33;;
11675;SDS011;5894;42.768;23.404;2023-07-20T08:33:08;7.10;;;2.97;;
11675;SDS011;5894;42.768;23.404;2023-07-20T08:35:36;9.18;;;2.95;;
11675;SDS011;5894;42.768;23.404;2023-07-20T08:38:03;6.05;;;2.53;;
11675;SDS011;5894;42.768;23.404;2023-07-20T08:40:30;7.95;;;2.88;;
11675;SDS011;5894;42.768;23.404;2023-07-20T08:42:59;7.00;;;2.90;;
11675;SDS011;5894;42.768;23.404;2023-07-20T08:45:27;5.60;;;2.67;;
11675;SDS011;5894;42.768;23.404;2023-07-20T08:47:55;7.68;;;2.80;;
11675;SDS011;5894;42.768;23.404;2023-07-20T08:50:25;6.30;;;2.58;;
11675;SDS011;5894;42.768;23.404;2023-07-20T08:52:54;7.68;;;2.50;;
11675;SDS011;5894;42.768;23.404;2023-07-20T08:55:24;7.72;;;2.80;;
11675;SDS011;5894;42.768;23.404;2023-07-20T08:57:53;7.25;;;2.42;;
11675;SDS011;5894;42.768;23.404;2023-07-20T09:00:23;9.10;;;2.70;;
11675;SDS011;5894;42.768;23.404;2023-07-20T09:02:52;6.55;;;2.78;;
11675;SDS011;5894;42.768;23.404;2023-07-20T09:05:20;5.68;;;2.40;;
11675;SDS011;5894;42.768;23.404;2023-07-20T09:07:49;7.53;;;2.88;;
11675;SDS011;5894;42.768;23.404;2023-07-20T09:10:16;5.30;;;2.60;;
11675;SDS011;5894;42.768;23.404;2023-07-20T09:12:43;4.82;;;2.70;;
11675;SDS011;5894;42.768;23.404;2023-07-20T09:15:11;6.65;;;2.60;;
11675;SDS011;5894;42.768;23.404;2023-07-20T09:17:39;4.80;;;2.55;;
11675;SDS011;5894;42.768;23.404;2023-07-20T09:20:12;9.75;;;2.70;;
11675;SDS011;5894;42.768;23.404;2023-07-20T09:22:41;4.82;;;2.40;;
11675;SDS011;5894;42.768;23.404;2023-07-20T09:25:10;7.55;;;3.42;;
11675;SDS011;5894;42.768;23.404;2023-07-20T09:27:38;8.27;;;2.90;;
11675;SDS011;5894;42.768;23.404;2023-07-20T09:30:07;8.23;;;2.85;;
11675;SDS011;5894;42.768;23.404;2023-07-20T09:32:41;12.00;;;3.10;;
11675;SDS011;5894;42.768;23.404;2023-07-20T09:35:13;9.40;;;2.53;;
11675;SDS011;5894;42.768;23.404;2023-07-20T09:37:45;7.22;;;2.70;;
11675;SDS011;5894;42.768;23.404;2023-07-20T09:40:14;6.72;;;2.90;;
11675;SDS011;5894;42.768;23.404;2023-07-20T09:42:42;5.28;;;2.40;;
11675;SDS011;5894;42.768;23.404;2023-07-20T09:45:10;5.72;;;2.47;;
11675;SDS011;5894;42.768;23.404;2023-07-20T09:47:37;5.07;;;2.30;;
11675;SDS011;5894;42.768;23.404;2023-07-20T09:50:06;5.50;;;2.20;;
11675;SDS011;5894;42.768;23.404;2023-07-20T09:52:37;7.07;;;2.28;;
11675;SDS011;5894;42.768;23.404;2023-07-20T09:55:06;6.20;;;2.38;;
11675;SDS011;5894;42.768;23.404;2023-07-20T09:57:35;6.47;;;2.45;;
11675;SDS011;5894;42.768;23.404;2023-07-20T10:00:03;7.53;;;2.10;;
11675;SDS011;5894;42.768;23.404;2023-07-20T10:02:42;6.40;;;2.30;;
11675;SDS011;5894;42.768;23.404;2023-07-20T10:05:12;4.63;;;2.45;;
11675;SDS011;5894;42.768;23.404;2023-07-20T10:07:43;5.35;;;2.08;;
11675;SDS011;5894;42.768;23.404;2023-07-20T10:10:13;5.78;;;2.47;;
11675;SDS011;5894;42.768;23.404;2023-07-20T10:12:42;5.85;;;2.42;;
11675;SDS011;5894;42.768;23.404;2023-07-20T10:15:15;7.32;;;2.15;;
11675;SDS011;5894;42.768;23.404;2023-07-20T10:17:48;4.43;;;2.40;;
11675;SDS011;5894;42.768;23.404;2023-07-20T10:20:24;6.90;;;2.30;;
11675;SDS011;5894;42.768;23.404;2023-07-20T10:22:53;5.35;;;2.50;;
11675;SDS011;5894;42.768;23.404;2023-07-20T10:25:21;4.82;;;2.28;;
11675;SDS011;5894;42.768;23.404;2023-07-20T10:27:49;6.15;;;2.85;;
11675;SDS011;5894;42.768;23.404;2023-07-20T10:30:16;7.47;;;2.60;;
11675;SDS011;5894;42.768;23.404;2023-07-20T10:32:44;4.50;;;2.50;;
11675;SDS011;5894;42.768;23.404;2023-07-20T10:35:12;7.18;;;2.72;;
11675;SDS011;5894;42.768;23.404;2023-07-20T10:37:51;6.43;;;2.67;;
11675;SDS011;5894;42.768;23.404;2023-07-20T10:40:24;7.80;;;2.17;;
11675;SDS011;5894;42.768;23.404;2023-07-20T10:42:59;6.18;;;2.65;;
11675;SDS011;5894;42.768;23.404;2023-07-20T10:45:36;5.60;;;2.78;;
11675;SDS011;5894;42.768;23.404;2023-07-20T10:48:13;5.57;;;2.67;;
11675;SDS011;5894;42.768;23.404;2023-07-20T10:50:41;5.85;;;2.50;;
11675;SDS011;5894;42.768;23.404;2023-07-20T10:53:17;6.55;;;2.53;;
11675;SDS011;5894;42.768;23.404;2023-07-20T10:55:45;4.88;;;2.38;;
11675;SDS011;5894;42.768;23.404;2023-07-20T10:58:15;6.70;;;2.47;;
11675;SDS011;5894;42.768;23.404;2023-07-20T11:00:56;4.38;;;2.25;;
11675;SDS011;5894;42.768;23.404;2023-07-20T11:03:29;6.82;;;2.53;;
11675;SDS011;5894;42.768;23.404;2023-07-20T11:05:57;6.65;;;2.50;;
11675;SDS011;5894;42.768;23.404;2023-07-20T11:08:39;6.40;;;2.40;;
11675;SDS011;5894;42.768;23.404;2023-07-20T11:11:23;5.50;;;2.17;;
11675;SDS011;5894;42.768;23.404;2023-07-20T11:13:55;5.03;;;2.58;;
11675;SDS011;5894;42.768;23.404;2023-07-20T11:16:33;3.92;;;2.38;;
11675;SDS011;5894;42.768;23.404;2023-07-20T11:19:04;5.05;;;2.40;;
11675;SDS011;5894;42.768;23.404;2023-07-20T11:21:36;7.60;;;2.47;;
11675;SDS011;5894;42.768;23.404;2023-07-20T11:24:07;5.57;;;2.40;;
11675;SDS011;5894;42.768;23.404;2023-07-20T11:26:41;10.45;;;2.47;;
11675;SDS011;5894;42.768;23.404;2023-07-20T11:29:09;4.57;;;2.28;;
11675;SDS011;5894;42.768;23.404;2023-07-20T11:31:37;8.43;;;2.50;;
11675;SDS011;5894;42.768;23.404;2023-07-20T11:34:05;4.78;;;2.22;;
11675;SDS011;5894;42.768;23.404;2023-07-20T11:36:33;5.45;;;2.42;;
11675;SDS011;5894;42.768;23.404;2023-07-20T11:39:00;8.75;;;2.60;;
11675;SDS011;5894;42.768;23.404;2023-07-20T11:41:31;11.32;;;2.83;;
11675;SDS011;5894;42.768;23.404;2023-07-20T11:43:59;6.35;;;2.50;;
11675;SDS011;5894;42.768;23.404;2023-07-20T11:46:27;6.45;;;2.78;;
11675;SDS011;5894;42.768;23.404;2023-07-20T11:48:57;6.45;;;2.63;;
11675;SDS011;5894;42.768;23.404;2023-07-20T11:51:26;5.60;;;2.45;;
11675;SDS011;5894;42.768;23.404;2023-07-20T11:53:54;6.57;;;3.00;;
11675;SDS011;5894;42.768;23.404;2023-07-20T11:56:22;5.25;;;2.80;;
11675;SDS011;5894;42.768;23.404;2023-07-20T11:58:53;7.60;;;3.13;;
11675;SDS011;5894;42.768;23.404;2023-07-20T12:01:23;5.03;;;2.80;;
11675;SDS011;5894;42.768;23.404;2023-07-20T12:03:51;11.05;;;5.53;;
11675;SDS011;5894;42.768;23.404;2023-07-20T12:06:18;4.55;;;2.90;;
11675;SDS011;5894;42.768;23.404;2023-07-20T12:08:49;5.60;;;2.78;;
11675;SDS011;5894;42.768;23.404;2023-07-20T12:11:29;6.72;;;2.70;;
11675;SDS011;5894;42.768;23.404;2023-07-20T12:13:59;5.88;;;2.67;;
11675;SDS011;5894;42.768;23.404;2023-07-20T12:16:26;5.38;;;2.63;;
11675;SDS011;5894;42.768;23.404;2023-07-20T12:18:59;4.85;;;2.60;;
11675;SDS011;5894;42.768;23.404;2023-07-20T12:21:26;4.28;;;2.50;;
11675;SDS011;5894;42.768;23.404;2023-07-20T12:23:55;6.15;;;2.83;;
11675;SDS011;5894;42.768;23.404;2023-07-20T12:26:23;8.57;;;3.10;;
11675;SDS011;5894;42.768;23.404;2023-07-20T12:28:51;6.72;;;2.78;;
11675;SDS011;5894;42.768;23.404;2023-07-20T12:31:19;5.40;;;2.40;;
11675;SDS011;5894;42.768;23.404;2023-07-20T12:33:48;7.80;;;3.22;;
11675;SDS011;5894;42.768;23.404;2023-07-20T12:36:15;6.95;;;2.65;;
11675;SDS011;5894;42.768;23.404;2023-07-20T12:38:42;2.88;;;1.88;;
11675;SDS011;5894;42.768;23.404;2023-07-20T12:41:09;6.50;;;2.85;;
11675;SDS011;5894;42.768;23.404;2023-07-20T12:43:39;4.93;;;2.42;;
11675;SDS011;5894;42.768;23.404;2023-07-20T12:46:06;4.85;;;2.42;;
11675;SDS011;5894;42.768;23.404;2023-07-20T12:48:35;5.32;;;2.15;;
11675;SDS011;5894;42.768;23.404;2023-07-20T12:51:03;7.25;;;2.38;;
11675;SDS011;5894;42.768;23.404;2023-07-20T12:53:30;7.43;;;2.50;;
11675;SDS011;5894;42.768;23.404;2023-07-20T12:55:57;7.97;;;2.65;;
11675;SDS011;5894;42.768;23.404;2023-07-20T12:58:24;7.65;;;2.33;;
11675;SDS011;5894;42.768;23.404;2023-07-20T13:00:52;5.63;;;2.63;;
11675;SDS011;5894;42.768;23.404;2023-07-20T13:03:19;6.70;;;2.70;;
11675;SDS011;5894;42.768;23.404;2023-07-20T13:05:47;4.47;;;2.33;;
11675;SDS011;5894;42.768;23.404;2023-07-20T13:08:14;10.38;;;2.80;;
11675;SDS011;5894;42.768;23.404;2023-07-20T13:10:41;6.20;;;2.42;;
11675;SDS011;5894;42.768;23.404;2023-07-20T13:13:09;7.35;;;2.17;;
11675;SDS011;5894;42.768;23.404;2023-07-20T13:15:41;10.48;;;2.97;;
11675;SDS011;5894;42.768;23.404;2023-07-20T13:18:09;8.07;;;2.65;;
11675;SDS011;5894;42.768;23.404;2023-07-20T13:20:36;6.45;;;2.33;;
11675;SDS011;5894;42.768;23.404;2023-07-20T13:23:04;7.18;;;2.60;;
11675;SDS011;5894;42.768;23.404;2023-07-20T13:25:31;6.15;;;2.75;;
11675;SDS011;5894;42.768;23.404;2023-07-20T13:27:58;8.50;;;2.63;;
11675;SDS011;5894;42.768;23.404;2023-07-20T13:30:25;6.88;;;2.70;;
11675;SDS011;5894;42.768;23.404;2023-07-20T13:32:52;7.78;;;2.67;;
11675;SDS011;5894;42.768;23.404;2023-07-20T13:35:19;4.53;;;2.20;;
11675;SDS011;5894;42.768;23.404;2023-07-20T13:37:46;6.95;;;2.50;;
11675;SDS011;5894;42.768;23.404;2023-07-20T13:40:16;7.32;;;2.17;;
11675;SDS011;5894;42.768;23.404;2023-07-20T13:42:44;4.65;;;2.42;;
11675;SDS011;5894;42.768;23.404;2023-07-20T13:45:11;5.55;;;2.50;;
11675;SDS011;5894;42.768;23.404;2023-07-20T13:47:38;4.63;;;2.30;;
11675;SDS011;5894;42.768;23.404;2023-07-20T13:50:06;5.18;;;2.13;;
11675;SDS011;5894;42.768;23.404;2023-07-20T13:52:33;6.90;;;2.35;;
11675;SDS011;5894;42.768;23.404;2023-07-20T13:55:02;7.47;;;2.17;;
11675;SDS011;5894;42.768;23.404;2023-07-20T13:57:31;7.10;;;2.28;;
11675;SDS011;5894;42.768;23.404;2023-07-20T13:59:58;7.97;;;2.13;;
11675;SDS011;5894;42.768;23.404;2023-07-20T14:02:26;7.15;;;2.50;;
11675;SDS011;5894;42.768;23.404;2023-07-20T14:04:52;3.05;;;2.05;;
11675;SDS011;5894;42.768;23.404;2023-07-20T14:07:21;8.82;;;2.20;;
11675;SDS011;5894;42.768;23.404;2023-07-20T14:09:48;5.15;;;2.40;;
11675;SDS011;5894;42.768;23.404;2023-07-20T14:12:15;5.57;;;2.00;;
11675;SDS011;5894;42.768;23.404;2023-07-20T14:14:43;8.27;;;2.70;;
11675;SDS011;5894;42.768;23.404;2023-07-20T14:17:10;5.47;;;2.42;;
11675;SDS011;5894;42.768;23.404;2023-07-20T14:19:37;5.10;;;2.63;;
11675;SDS011;5894;42.768;23.404;2023-07-20T14:22:05;5.43;;;2.50;;
11675;SDS011;5894;42.768;23.404;2023-07-20T14:24:32;6.07;;;2.53;;
11675;SDS011;5894;42.768;23.404;2023-07-20T14:26:59;5.32;;;2.30;;
11675;SDS011;5894;42.768;23.404;2023-07-20T14:29:27;7.20;;;2.90;;
11675;SDS011;5894;42.768;23.404;2023-07-20T14:31:58;6.05;;;2.60;;
11675;SDS011;5894;42.768;23.404;2023-07-20T14:34:25;5.68;;;2.50;;
11675;SDS011;5894;42.768;23.404;2023-07-20T14:36:52;7.95;;;2.75;;
11675;SDS011;5894;42.768;23.404;2023-07-20T14:39:20;7.30;;;2.60;;
11675;SDS011;5894;42.768;23.404;2023-07-20T14:41:47;5.43;;;2.20;;
11675;SDS011;5894;42.768;23.404;2023-07-20T14:44:15;6.13;;;2.70;;
11675;SDS011;5894;42.768;23.404;2023-07-20T14:46:42;8.48;;;2.63;;
11675;SDS011;5894;42.768;23.404;2023-07-20T14:49:11;4.82;;;2.15;;
11675;SDS011;5894;42.768;23.404;2023-07-20T14:51:38;6.68;;;2.30;;
11675;SDS011;5894;42.768;23.404;2023-07-20T14:54:08;6.10;;;2.40;;
11675;SDS011;5894;42.768;23.404;2023-07-20T14:56:37;8.00;;;2.50;;